Blanchard, PA

5:42 AM EST on January 24, 2017 (GMT -0500)
Haagan Ln. | | Change Station
Active Advisory: Winter Weather Advisory Active Notice: Public Information Statement

Elev 720 ft 41.09 °N, 77.57 °W | Updated 11 seconds ago

Snow
Snow
31.9 °F
Feels Like 32 °F
N
0.0
Wind Variable Wind from SSE

Today
High -- | Low -- °F
--% Chance of Precip.
Yesterday
High -- | Low -- °F
Precip. -- in
Pressure 29.55 in
Visibility 3.0 miles
Clouds Scattered Clouds 900 ft
Overcast 1700 ft
Windchill 32 °F
Dew Point 31 °F
Humidity 98%
Rainfall 0.00 in
Snow Depth Not available.
7:27 AM 5:17 PM
Waning Crescent, 12% visible
METAR KUNV 241035Z AUTO 00000KT 3SM -SN SCT009 OVC017 00/00 A2955 RMK AO2 T00010000
Pressure 29.55 in
Visibility 3.0 miles
Clouds Scattered Clouds 900 ft
Overcast 1700 ft
Windchill 32 °F
Dew Point 31 °F
Humidity 98%
Rainfall 0.00 in
Snow Depth Not available.
7:27 AM 5:17 PM
Waning Crescent, 12% visible
METAR KUNV 241035Z AUTO 00000KT 3SM -SN SCT009 OVC017 00/00 A2955 RMK AO2 T00010000

Get Your Daily Forecast Email!

Thanks for signing up!

Be on the lookout for a verification email in your inbox.

You'll start receiving the daily forecast at 8 AM.

×

10-Day Weather Forecast

Almanac

Astronomy

Jan. 24, 2017 Rise Set
Actual Time
Civil Twilight
Nautical Twilight
Astronomical Twilight
Moon
Length of Visible Light
Length of Day
Tomorrow will be .
, % of the Moon is Illuminated

Today's Extremes

State Highs State Lows

Community

WunderPhotos

Upload Photos

1,962,540 photos uploaded!

WunderBlog® & News

Nearby

Air Quality

  Air Quality AQ Index Pollutant
Not available.

Snow Depth

Station Depth Elevation

Earthquake Activity

City Distance Mag. Time & Date
Minimum magnitude displayed is 2.5.

Coastal Water Temperatures

Place Temperature

Stations

Nearby Weather Stations

Station Location Temp. Windchill Dew Point Humidity Wind Precip. Elev Updated Type
                   

Watches & Warnings

Winter Weather Advisory
Issued: 11:39 PM EST Jan. 23, 2017 – National Weather Service

... Winter Weather Advisory remains in effect until 7 am EST
Tuesday...

* periods of rain and drizzle will turn to mostly snow overnight
and end in the morning hours.

* Snow and sleet accumulations 1 to 2 inches in the valleys to 3
to 5 inches on the ridgetops. Snow and sleet accumulations will
be heavy and wet.

* Expect hazardous travel on snow covered roads and longer travel
times overnight and Tuesday morning. Isolated power outages are
possible due to the heavy accumulations.

Precautionary/preparedness actions...

The Pennsylvania Department of Transportation reminds motorists
to adjust speeds based on driving conditions and to take it slow
in ice and snow.